createdAt,value
2023-02-03T00:00:49.746Z,0.70
2023-02-03T00:03:19.254Z,0.73
2023-02-03T00:05:49.080Z,0.40
2023-02-03T00:08:20.921Z,0.60
2023-02-03T00:10:51.332Z,0.80
2023-02-03T00:13:20.807Z,0.50
2023-02-03T00:15:50.306Z,0.50
2023-02-03T00:18:19.900Z,0.50
2023-02-03T00:20:49.776Z,0.60
2023-02-03T00:23:19.216Z,0.40
2023-02-03T00:25:48.741Z,0.40
2023-02-03T00:28:18.231Z,0.67
2023-02-03T00:30:47.832Z,0.57
2023-02-03T00:33:17.265Z,0.77
2023-02-03T00:35:46.795Z,0.60
2023-02-03T00:38:16.399Z,0.47
2023-02-03T00:40:54.800Z,0.50
2023-02-03T00:43:24.253Z,0.40
2023-02-03T00:45:53.908Z,0.30
2023-02-03T00:48:23.430Z,0.43
2023-02-03T00:50:52.883Z,0.80
2023-02-03T00:53:22.312Z,0.93
2023-02-03T00:55:52.210Z,0.60
2023-02-03T00:58:21.645Z,0.40
2023-02-03T01:00:51.122Z,0.30
2023-02-03T01:03:20.543Z,0.53
2023-02-03T01:05:49.975Z,0.53
2023-02-03T01:08:19.427Z,0.67
2023-02-03T01:10:48.938Z,1.27
2023-02-03T01:13:18.375Z,0.50
2023-02-03T01:15:49.238Z,0.80
2023-02-03T01:18:18.750Z,0.73
2023-02-03T01:20:48.222Z,0.60
2023-02-03T01:23:17.655Z,0.70
2023-02-03T01:25:47.103Z,0.40
2023-02-03T01:28:16.632Z,0.50
2023-02-03T01:30:46.378Z,0.70
2023-02-03T01:33:15.986Z,0.70
2023-02-03T01:35:45.436Z,0.53
2023-02-03T01:38:14.867Z,0.70
2023-02-03T01:40:47.438Z,0.53
2023-02-03T01:43:35.411Z,0.33
2023-02-03T01:46:24.923Z,0.53
2023-02-03T01:49:01.542Z,0.67
2023-02-03T01:51:31.726Z,0.53
2023-02-03T01:54:02.069Z,0.67
2023-02-03T01:56:36.130Z,1.03
2023-02-03T01:59:06.199Z,0.93
2023-02-03T02:01:37.447Z,0.70
2023-02-03T02:04:09.020Z,1.07
2023-02-03T02:06:38.472Z,0.80
2023-02-03T02:09:09.709Z,0.80
2023-02-03T02:11:39.166Z,0.80
2023-02-03T02:14:09.403Z,0.90
2023-02-03T02:17:00.905Z,1.10
2023-02-03T02:20:00.310Z,0.70
2023-02-03T02:22:37.192Z,0.90
2023-02-03T02:25:29.466Z,0.50
2023-02-03T02:28:31.617Z,0.60
2023-02-03T02:31:35.816Z,0.53
2023-02-03T02:34:30.300Z,0.60
2023-02-03T02:37:33.469Z,0.47
2023-02-03T02:40:16.282Z,0.50
2023-02-03T02:43:20.618Z,0.40
2023-02-03T02:46:06.944Z,0.53
2023-02-03T02:48:47.212Z,0.40
2023-02-03T02:51:18.478Z,0.60
2023-02-03T02:53:58.076Z,0.73
2023-02-03T02:56:32.019Z,0.30
2023-02-03T02:59:05.626Z,0.40
2023-02-03T03:01:35.631Z,0.23
2023-02-03T03:04:09.391Z,0.30
2023-02-03T03:06:49.481Z,0.30
2023-02-03T03:09:29.697Z,0.30
2023-02-03T03:12:03.751Z,0.40
2023-02-03T03:14:35.493Z,0.30
2023-02-03T03:17:09.537Z,0.30
2023-02-03T03:19:43.596Z,0.30
2023-02-03T03:22:17.350Z,0.40
2023-02-03T03:24:51.400Z,0.20
2023-02-03T03:27:28.176Z,0.20
2023-02-03T03:30:07.918Z,0.40
2023-02-03T03:32:37.983Z,0.20
2023-02-03T03:35:08.645Z,0.20
2023-02-03T03:37:48.260Z,0.20
2023-02-03T03:40:37.103Z,0.20
2023-02-03T03:43:22.250Z,0.30
2023-02-03T03:46:05.458Z,0.10
2023-02-03T03:48:39.484Z,0.30
2023-02-03T03:51:16.508Z,0.30
2023-02-03T03:53:51.049Z,0.23
2023-02-03T03:56:28.121Z,0.20
2023-02-03T03:59:00.669Z,0.30
2023-02-03T04:01:31.836Z,0.30
2023-02-03T04:04:06.195Z,0.30
2023-02-03T04:06:35.724Z,0.40
2023-02-03T04:09:05.524Z,0.40
2023-02-03T04:11:53.040Z,0.30
2023-02-03T04:14:22.467Z,0.50
2023-02-03T04:16:51.962Z,0.10
2023-02-03T04:19:21.389Z,0.50
2023-02-03T04:21:51.026Z,0.30
2023-02-03T04:24:20.440Z,0.43
2023-02-03T04:26:49.908Z,0.40
2023-02-03T04:29:19.327Z,0.40
2023-02-03T04:31:49.209Z,0.80
2023-02-03T04:34:18.767Z,0.70
2023-02-03T04:36:48.492Z,1.27
2023-02-03T04:39:17.918Z,0.70
2023-02-03T04:41:47.381Z,0.80
2023-02-03T04:44:16.811Z,1.00
2023-02-03T04:46:46.761Z,0.60
2023-02-03T04:49:17.556Z,0.70
2023-02-03T04:51:48.533Z,1.10
2023-02-03T04:54:17.964Z,0.90
2023-02-03T04:56:47.420Z,1.20
2023-02-03T04:59:16.854Z,1.30
2023-02-03T05:01:46.301Z,1.50
2023-02-03T05:04:15.743Z,1.70
2023-02-03T05:06:45.253Z,1.57
2023-02-03T05:09:15.126Z,1.27
2023-02-03T05:11:44.575Z,1.53
2023-02-03T05:14:14.019Z,1.53
2023-02-03T05:16:43.618Z,1.40
2023-02-03T05:19:13.236Z,1.53
2023-02-03T05:21:42.681Z,1.67
2023-02-03T05:24:12.192Z,1.53
2023-02-03T05:26:42.030Z,1.83
2023-02-03T05:29:11.949Z,1.70
2023-02-03T05:31:41.449Z,1.90
2023-02-03T05:34:10.968Z,2.17
2023-02-03T05:36:40.433Z,1.63
2023-02-03T05:39:09.946Z,1.90
2023-02-03T05:41:57.180Z,2.08
2023-02-03T05:44:30.185Z,1.60
2023-02-03T05:47:01.084Z,2.07
2023-02-03T05:49:30.538Z,2.43
2023-02-03T05:51:59.992Z,2.73
2023-02-03T05:54:29.415Z,2.40
2023-02-03T05:56:58.863Z,2.10
2023-02-03T05:59:28.311Z,2.70
2023-02-03T06:01:57.756Z,2.67
2023-02-03T06:04:27.269Z,2.77
2023-02-03T06:06:56.724Z,2.70
2023-02-03T06:09:26.175Z,2.70
2023-02-03T06:11:55.621Z,1.83
2023-02-03T06:14:25.065Z,2.00
2023-02-03T06:16:54.849Z,2.30
2023-02-03T06:19:24.306Z,2.30
2023-02-03T06:21:53.752Z,2.17
2023-02-03T06:24:23.227Z,2.43
2023-02-03T06:26:52.719Z,2.50
2023-02-03T06:29:22.163Z,2.60
2023-02-03T06:31:51.890Z,2.30
2023-02-03T06:34:21.406Z,2.13
2023-02-03T06:36:51.078Z,2.83
2023-02-03T06:39:20.600Z,2.50
2023-02-03T06:41:51.730Z,2.40
2023-02-03T06:44:21.196Z,2.50
2023-02-03T06:46:52.599Z,2.53
2023-02-03T06:49:22.051Z,2.10
2023-02-03T06:51:52.557Z,2.30
2023-02-03T06:54:22.184Z,2.00
2023-02-03T06:56:51.676Z,2.50
2023-02-03T06:59:21.205Z,2.43
2023-02-03T07:01:50.708Z,1.90
2023-02-03T07:04:20.245Z,2.03
2023-02-03T07:06:49.718Z,2.30
2023-02-03T07:09:19.189Z,1.57
2023-02-03T07:11:48.634Z,1.97
2023-02-03T07:14:18.159Z,2.07
2023-02-03T07:16:48.019Z,2.40
2023-02-03T07:19:17.459Z,2.93
2023-02-03T07:21:46.910Z,2.27
2023-02-03T07:24:16.466Z,2.03
2023-02-03T07:26:45.883Z,3.00
2023-02-03T07:29:15.322Z,2.70
2023-02-03T07:31:44.936Z,1.90
2023-02-03T07:34:14.561Z,2.30
2023-02-03T07:36:44.009Z,2.20
2023-02-03T07:39:13.455Z,2.30
2023-02-03T07:41:42.902Z,2.10
2023-02-03T07:44:12.343Z,1.80
2023-02-03T07:46:43.757Z,1.83
2023-02-03T07:49:16.735Z,2.30
2023-02-03T07:51:46.147Z,2.20
2023-02-03T07:54:15.927Z,1.80
2023-02-03T07:56:45.617Z,1.70
2023-02-03T07:59:15.054Z,1.40
2023-02-03T08:01:44.597Z,1.60
2023-02-03T08:04:15.657Z,1.40
2023-02-03T08:06:47.836Z,1.50
2023-02-03T08:09:17.346Z,1.30
2023-02-03T08:11:46.806Z,1.27
2023-02-03T08:14:16.316Z,1.70
2023-02-03T08:16:46.307Z,1.80
2023-02-03T08:19:16.035Z,1.50
2023-02-03T08:21:45.482Z,1.60
2023-02-03T08:24:14.919Z,1.37
2023-02-03T08:26:44.361Z,1.30
2023-02-03T08:29:13.871Z,1.60
2023-02-03T08:31:44.383Z,1.33
2023-02-03T08:34:13.870Z,1.60
2023-02-03T08:36:44.072Z,1.60
2023-02-03T08:39:13.536Z,1.43
2023-02-03T08:41:42.982Z,1.10
2023-02-03T08:44:12.499Z,1.40
2023-02-03T08:46:43.585Z,1.10
2023-02-03T08:49:13.727Z,1.37
2023-02-03T08:51:44.884Z,1.50
2023-02-03T08:54:14.877Z,1.40
2023-02-03T08:56:44.396Z,1.00
2023-02-03T08:59:15.856Z,1.20
2023-02-03T09:01:47.964Z,1.00
2023-02-03T09:04:19.718Z,1.07
2023-02-03T09:06:49.528Z,1.00
2023-02-03T09:09:19.341Z,1.20
2023-02-03T09:11:48.975Z,1.43
2023-02-03T09:14:18.428Z,0.80
2023-02-03T09:16:47.901Z,1.00
2023-02-03T09:19:17.409Z,0.90
2023-02-03T09:21:48.509Z,0.95
2023-02-03T09:24:19.530Z,0.90
2023-02-03T09:26:48.980Z,1.37
2023-02-03T09:29:18.434Z,0.87
2023-02-03T09:31:49.757Z,0.70
2023-02-03T09:34:20.480Z,1.10
2023-02-03T09:36:51.447Z,1.00
2023-02-03T09:39:20.945Z,0.80
2023-02-03T09:42:31.998Z,0.90
2023-02-03T09:45:09.076Z,0.80
2023-02-03T09:47:43.415Z,0.70
2023-02-03T09:50:27.009Z,1.00
2023-02-03T09:52:59.744Z,0.77
2023-02-03T09:55:45.049Z,0.90
2023-02-03T09:58:23.128Z,0.83
2023-02-03T10:01:06.554Z,1.10
2023-02-03T10:03:49.314Z,0.77
2023-02-03T10:06:41.276Z,0.77
2023-02-03T10:09:24.484Z,0.80
2023-02-03T10:12:40.943Z,1.13
2023-02-03T10:15:51.396Z,0.70
2023-02-03T10:18:28.178Z,0.70
2023-02-03T10:21:08.036Z,0.70
2023-02-03T10:23:42.056Z,0.97
2023-02-03T10:26:21.533Z,0.77
2023-02-03T10:29:01.294Z,0.80
2023-02-03T10:31:35.457Z,0.60
2023-02-03T10:34:15.508Z,0.40
2023-02-03T10:37:01.851Z,0.60
2023-02-03T10:39:51.173Z,0.67
2023-02-03T10:42:22.233Z,0.60
2023-02-03T10:45:04.000Z,0.60
2023-02-03T10:47:40.611Z,0.40
2023-02-03T10:50:31.162Z,0.40
2023-02-03T10:53:36.912Z,0.60
2023-02-03T10:56:14.102Z,0.70
2023-02-03T10:58:51.023Z,0.90
2023-02-03T11:01:25.653Z,0.70
2023-02-03T11:04:05.356Z,0.60
2023-02-03T11:06:36.722Z,1.00
2023-02-03T11:09:10.769Z,0.60
2023-02-03T11:11:42.322Z,1.00
2023-02-03T11:14:16.692Z,0.57
2023-02-03T11:16:47.651Z,1.10
2023-02-03T11:19:24.406Z,0.97
2023-02-03T11:22:00.576Z,1.30
2023-02-03T11:24:34.973Z,1.83
2023-02-03T11:27:13.056Z,2.30
2023-02-03T11:29:56.363Z,2.30
2023-02-03T11:32:36.485Z,2.13
2023-02-03T11:35:25.449Z,1.97
2023-02-03T11:38:02.976Z,2.27
2023-02-03T11:40:36.656Z,3.37
2023-02-03T11:43:19.463Z,2.67
2023-02-03T11:45:53.342Z,2.20
2023-02-03T11:48:33.378Z,2.03
2023-02-03T11:51:31.452Z,2.10
2023-02-03T11:54:05.512Z,2.00
2023-02-03T11:57:05.101Z,2.13
2023-02-03T12:00:11.984Z,1.87
2023-02-03T12:03:17.892Z,2.20
2023-02-03T12:06:14.253Z,2.60
2023-02-03T12:09:00.289Z,2.80
2023-02-03T12:11:56.634Z,2.57
2023-02-03T12:14:47.922Z,2.17
2023-02-03T12:17:39.360Z,2.90
2023-02-03T12:20:19.517Z,2.90
2023-02-03T12:22:56.399Z,3.00
2023-02-03T12:26:11.309Z,2.87
2023-02-03T12:29:21.011Z,2.90
2023-02-03T12:32:07.207Z,2.50
2023-02-03T12:34:50.133Z,2.80
2023-02-03T12:37:44.988Z,2.10
2023-02-03T12:40:44.723Z,2.30
2023-02-03T12:43:39.015Z,3.27
2023-02-03T12:46:47.652Z,3.00
2023-02-03T12:49:33.166Z,3.00
2023-02-03T12:52:13.405Z,2.73
2023-02-03T12:55:11.374Z,2.80
2023-02-03T12:57:45.418Z,1.97
2023-02-03T13:00:39.904Z,1.53
2023-02-03T13:03:22.867Z,2.17
2023-02-03T13:05:59.741Z,1.90
2023-02-03T13:08:39.364Z,1.43
2023-02-03T13:11:15.310Z,1.47
2023-02-03T13:13:51.935Z,1.30
2023-02-03T13:16:26.212Z,1.50
2023-02-03T13:19:02.024Z,1.27
2023-02-03T13:21:31.971Z,1.43
2023-02-03T13:24:03.430Z,1.37
2023-02-03T13:27:07.905Z,0.97
2023-02-03T13:30:03.016Z,1.30
2023-02-03T13:33:01.052Z,1.50
2023-02-03T13:35:55.476Z,1.27
2023-02-03T13:38:52.139Z,1.20
2023-02-03T13:41:34.539Z,2.67
2023-02-03T13:44:06.105Z,1.57
2023-02-03T13:46:37.879Z,1.23
2023-02-03T13:49:09.762Z,1.10
2023-02-03T13:51:46.398Z,1.27
2023-02-03T13:54:38.569Z,1.20
2023-02-03T13:57:23.775Z,1.20
2023-02-03T13:59:53.263Z,1.67
2023-02-03T14:02:27.323Z,1.20
2023-02-03T14:05:00.055Z,1.30
2023-02-03T14:07:39.130Z,1.30
2023-02-03T14:10:24.957Z,1.50
2023-02-03T14:12:59.585Z,1.60
2023-02-03T14:15:32.849Z,1.90
2023-02-03T14:18:24.207Z,1.53
2023-02-03T14:21:01.032Z,1.53
2023-02-03T14:23:38.174Z,2.03
2023-02-03T14:26:11.258Z,2.07
2023-02-03T14:28:47.204Z,2.43
2023-02-03T14:31:26.557Z,2.57
2023-02-03T14:34:11.345Z,2.70
2023-02-03T14:36:45.859Z,2.90
2023-02-03T14:39:25.879Z,4.10
2023-02-03T14:42:22.084Z,3.20
2023-02-03T14:45:16.391Z,2.83
2023-02-03T14:48:33.986Z,3.00
2023-02-03T14:51:28.673Z,2.50
2023-02-03T14:54:34.177Z,3.00
2023-02-03T14:57:28.947Z,2.97
2023-02-03T15:00:10.318Z,2.70
2023-02-03T15:02:44.376Z,2.43
2023-02-03T15:05:26.236Z,2.60
2023-02-03T15:07:55.869Z,2.53
2023-02-03T15:10:30.311Z,2.53
2023-02-03T15:13:00.322Z,3.03
2023-02-03T15:15:33.871Z,2.40
2023-02-03T15:18:22.993Z,3.20
2023-02-03T15:20:56.537Z,2.55
2023-02-03T15:23:33.231Z,2.60
2023-02-03T15:26:19.987Z,2.70
2023-02-03T15:29:04.253Z,2.93
2023-02-03T15:31:47.932Z,2.47
2023-02-03T15:34:28.080Z,3.00
2023-02-03T15:37:02.923Z,2.30
2023-02-03T15:39:39.764Z,2.60
2023-02-03T15:42:16.564Z,2.00
2023-02-03T15:44:53.402Z,2.70
2023-02-03T15:47:42.308Z,2.80
2023-02-03T15:50:31.756Z,2.90
2023-02-03T15:53:06.223Z,2.40
2023-02-03T15:55:45.996Z,2.00
2023-02-03T15:58:19.990Z,2.60
2023-02-03T16:01:00.329Z,2.37
2023-02-03T16:03:43.208Z,2.30
2023-02-03T16:06:27.232Z,2.10
2023-02-03T16:08:59.735Z,1.93
2023-02-03T16:11:34.029Z,2.00
2023-02-03T16:14:09.819Z,2.47
2023-02-03T16:16:58.822Z,2.27
2023-02-03T16:19:23.384Z,2.20
2023-02-03T16:21:56.916Z,1.67
2023-02-03T16:24:42.599Z,2.20
2023-02-03T16:27:33.904Z,3.20
2023-02-03T16:30:34.902Z,2.63
2023-02-03T16:33:34.865Z,2.87
2023-02-03T16:36:32.015Z,2.30
2023-02-03T16:39:22.952Z,2.53
2023-02-03T16:42:10.708Z,2.20
2023-02-03T16:44:58.043Z,2.40
2023-02-03T16:47:48.589Z,2.60
2023-02-03T16:50:42.842Z,3.13
2023-02-03T16:53:19.719Z,3.10
2023-02-03T16:55:50.130Z,2.70
2023-02-03T16:58:20.315Z,2.20
2023-02-03T17:00:52.713Z,2.30
2023-02-03T17:03:26.146Z,2.53
2023-02-03T17:05:56.857Z,2.37
2023-02-03T17:08:27.749Z,2.53
2023-02-03T17:10:58.834Z,2.27
2023-02-03T17:13:28.278Z,2.17
2023-02-03T17:15:58.566Z,2.20
2023-02-03T17:18:28.165Z,2.40
2023-02-03T17:20:59.194Z,2.30
2023-02-03T17:23:28.654Z,2.87
2023-02-03T17:25:58.176Z,3.37
2023-02-03T17:28:27.612Z,2.50
2023-02-03T17:31:07.354Z,2.70
2023-02-03T17:33:37.141Z,3.07
2023-02-03T17:36:11.668Z,3.00
2023-02-03T17:55:29.218Z,2.70
2023-02-03T17:57:58.796Z,2.60
2023-02-03T18:00:28.791Z,2.43
2023-02-03T18:02:58.320Z,1.83
2023-02-03T18:05:28.751Z,2.40
2023-02-03T18:08:03.033Z,2.50
2023-02-03T18:10:29.852Z,2.43
2023-02-03T18:12:59.522Z,2.53
2023-02-03T18:15:28.975Z,2.83
2023-02-03T18:17:58.409Z,2.67
2023-02-03T18:20:28.261Z,3.00
2023-02-03T18:22:57.800Z,2.80
2023-02-03T18:25:27.275Z,2.70
2023-02-03T18:27:56.784Z,2.90
2023-02-03T18:30:26.292Z,2.30
2023-02-03T18:32:55.908Z,2.10
2023-02-03T18:35:25.366Z,2.50
2023-02-03T18:37:54.810Z,2.40
2023-02-03T18:40:24.279Z,2.57
2023-02-03T18:42:55.356Z,3.20
2023-02-03T18:45:25.287Z,2.87
2023-02-03T18:47:55.185Z,2.80
2023-02-03T18:50:25.523Z,1.80
2023-02-03T18:52:55.900Z,2.17
2023-02-03T18:55:25.426Z,2.30
2023-02-03T18:57:54.862Z,2.20
2023-02-03T19:00:24.462Z,1.90
2023-02-03T19:02:54.611Z,2.30
2023-02-03T19:05:25.425Z,2.10
2023-02-03T19:07:54.856Z,2.57
2023-02-03T19:10:24.317Z,2.37
2023-02-03T19:12:53.750Z,2.00
2023-02-03T19:15:23.516Z,2.27
2023-02-03T19:17:52.955Z,2.00
2023-02-03T19:20:22.420Z,2.40
2023-02-03T19:22:53.736Z,1.77
2023-02-03T19:25:23.350Z,1.43
2023-02-03T19:27:52.884Z,1.70
2023-02-03T19:30:23.655Z,1.97
2023-02-03T19:32:53.107Z,2.37
2023-02-03T19:35:22.633Z,1.53
2023-02-03T19:37:53.637Z,2.03
2023-02-03T19:40:23.082Z,1.90
2023-02-03T19:42:52.529Z,1.30
2023-02-03T19:45:22.883Z,2.03
2023-02-03T19:47:52.363Z,1.80
2023-02-03T19:50:21.884Z,1.77
2023-02-03T19:52:51.320Z,1.73
2023-02-03T19:55:20.774Z,1.60
2023-02-03T19:57:50.242Z,1.60
2023-02-03T20:00:20.484Z,1.30
2023-02-03T20:02:49.989Z,1.27
2023-02-03T20:05:19.497Z,1.47
2023-02-03T20:07:48.953Z,1.63
2023-02-03T20:10:18.527Z,1.13
2023-02-03T20:12:48.259Z,1.50
2023-02-03T20:15:17.703Z,1.03
2023-02-03T20:17:47.161Z,1.27
2023-02-03T20:20:20.653Z,1.93
2023-02-03T20:22:50.680Z,1.10
2023-02-03T20:25:20.260Z,1.40
2023-02-03T20:27:49.769Z,1.07
2023-02-03T20:30:19.384Z,1.30
2023-02-03T20:32:49.920Z,1.40
2023-02-03T20:35:19.798Z,1.30
2023-02-03T20:37:49.256Z,1.10
2023-02-03T20:40:22.437Z,1.20
2023-02-03T20:42:53.178Z,1.13
2023-02-03T20:45:25.470Z,1.10
2023-02-03T20:47:55.727Z,1.50
2023-02-03T20:50:37.371Z,0.90
2023-02-03T20:52:58.067Z,1.40
2023-02-03T20:55:27.798Z,1.40
2023-02-03T20:57:57.287Z,1.43
2023-02-03T21:00:28.622Z,1.07
2023-02-03T21:03:16.308Z,1.20
2023-02-03T21:05:46.312Z,1.30
2023-02-03T21:08:18.750Z,1.40
2023-02-03T21:10:49.996Z,1.23
2023-02-03T21:13:29.792Z,0.60
2023-02-03T21:16:04.356Z,0.83
2023-02-03T21:18:56.607Z,0.43
2023-02-03T21:21:33.332Z,0.40
2023-02-03T21:24:05.142Z,0.33
2023-02-03T21:26:36.470Z,0.57
2023-02-03T21:29:05.996Z,0.43
2023-02-03T21:31:38.108Z,0.47
2023-02-03T21:34:27.618Z,0.40
2023-02-03T21:37:00.801Z,0.50
2023-02-03T21:39:34.323Z,0.50
2023-02-03T21:42:41.515Z,0.50
2023-02-03T21:45:21.285Z,0.50
2023-02-03T21:47:53.333Z,0.30
2023-02-03T21:50:41.698Z,0.30
2023-02-03T21:53:15.750Z,0.60
2023-02-03T21:55:45.341Z,0.20
2023-02-03T21:58:37.130Z,0.27
2023-02-03T22:01:08.116Z,0.20
2023-02-03T22:03:42.316Z,0.20
2023-02-03T22:06:25.204Z,0.40
2023-02-03T22:08:58.477Z,0.30
2023-02-03T22:11:33.082Z,0.27
2023-02-03T22:14:02.525Z,0.30
2023-02-03T22:16:32.141Z,0.40
2023-02-03T22:19:01.588Z,0.10
2023-02-03T22:21:31.051Z,0.20
2023-02-03T22:24:00.667Z,0.50
2023-02-03T22:26:30.476Z,0.30
2023-02-03T22:28:59.907Z,0.33
2023-02-03T22:31:29.524Z,0.20
2023-02-03T22:33:58.943Z,0.50
2023-02-03T22:36:28.795Z,0.40
2023-02-03T22:38:58.230Z,0.40
2023-02-03T22:41:27.662Z,0.10
2023-02-03T22:43:57.115Z,0.23
2023-02-03T22:46:26.577Z,0.50
2023-02-03T22:48:56.011Z,0.27
2023-02-03T22:51:25.520Z,0.20
2023-02-03T22:53:54.983Z,0.30
2023-02-03T22:56:24.425Z,0.30
2023-02-03T22:58:53.878Z,0.40
2023-02-03T23:01:23.316Z,0.30
2023-02-03T23:03:52.764Z,0.33
2023-02-03T23:06:22.221Z,0.20
2023-02-03T23:08:51.654Z,0.20
2023-02-03T23:11:21.089Z,0.20
2023-02-03T23:13:50.551Z,0.30
2023-02-03T23:16:19.987Z,0.30
2023-02-03T23:18:49.442Z,0.57
2023-02-03T23:21:18.945Z,0.30
2023-02-03T23:23:48.394Z,0.40
2023-02-03T23:26:17.827Z,0.50
2023-02-03T23:28:47.283Z,0.50
2023-02-03T23:31:16.915Z,0.30
2023-02-03T23:34:04.601Z,0.43
2023-02-03T23:36:34.806Z,0.40
2023-02-03T23:39:04.321Z,0.30
2023-02-03T23:41:33.764Z,0.70
2023-02-03T23:44:03.211Z,0.53
2023-02-03T23:46:32.714Z,0.57
2023-02-03T23:49:02.186Z,1.00
2023-02-03T23:51:31.632Z,0.40
2023-02-03T23:54:01.070Z,0.50
2023-02-03T23:56:30.500Z,0.40
2023-02-03T23:59:00.110Z,0.60
